WXM80 ListenWXM80 Stop

You find our weather info also at:

UK Metoffice

WeatherCloud

Weather Underground

Northeastern Weather Network

AWEKAS

Citizen Weather Observer Program (CWOP)

HAMweather, WeatherForYou, PWS Weather


Weather Underground History page Text

Daily Summary for August 21, 2016 Units:  English    Metric   Both
« Previous Day
Next Day »
Daily Weekly Monthly Yearly Custom
  High: Low: Average:
Temperature: 86.8 °F 70.8 °F 77.8 °F
Dew Point: 76.3 °F 68.8 °F 73.2 °F
Humidity: 98 % 65 % 87 %
Wind Speed: 8.3 mph 0.0 mph 1.8 mph
Wind Gust: 16.1 mph - -
Wind:- - SSE
Pressure: 29.91 in 29.73 in -
Precipitation: 0.08 in    
Historical Graphs
 
 
Tabular Data for August 21, 2016
Time Temperature Dew Point Pressure Wind Wind Speed Wind Gust Humidity Rainfall Rate (Hourly)
00:01 71.3 °F 69.2 °F 29.90 in Calm     93 % 0.00 in
00:06 71.3 °F 69.2 °F 29.90 in Calm     93 % 0.00 in
00:11 71.2 °F 69.1 °F 29.91 in Calm     93 % 0.00 in
00:16 71.2 °F 69.1 °F 29.90 in Calm     93 % 0.00 in
00:21 71.2 °F 69.1 °F 29.90 in Calm     93 % 0.00 in
00:26 71.1 °F 69.0 °F 29.90 in Calm     93 % 0.00 in
00:36 71.0 °F 68.9 °F 29.90 in Calm   1.0 mph 93 % 0.00 in
00:41 71.0 °F 68.9 °F 29.90 in Calm   1.0 mph 93 % 0.00 in
00:46 70.9 °F 68.8 °F 29.90 in Calm   1.0 mph 93 % 0.00 in
00:51 70.9 °F 69.1 °F 29.90 in Calm   1.0 mph 94 % 0.00 in
00:56 70.9 °F 69.1 °F 29.90 in Calm     94 % 0.00 in
01:01 70.9 °F 69.1 °F 29.90 in Calm     94 % 0.00 in
01:06 70.9 °F 69.0 °F 29.90 in Calm   2.0 mph 94 % 0.00 in
01:11 70.8 °F 69.0 °F 29.90 in Calm     94 % 0.00 in
01:16 70.8 °F 69.0 °F 29.89 in Calm     94 % 0.00 in
01:21 70.8 °F 69.0 °F 29.89 in Calm     94 % 0.00 in
01:26 70.8 °F 69.3 °F 29.89 in Calm     95 % 0.00 in
01:31 70.9 °F 69.4 °F 29.89 in SSE 0.4 mph 2.3 mph 95 % 0.00 in
01:36 70.9 °F 69.4 °F 29.89 in SSE 0.1 mph 1.2 mph 95 % 0.00 in
01:41 71.1 °F 69.9 °F 29.89 in Calm     96 % 0.00 in
01:46 71.3 °F 70.1 °F 29.88 in SSE 0.7 mph 2.3 mph 96 % 0.00 in
01:51 71.4 °F 70.2 °F 29.88 in Calm     96 % 0.00 in
01:57 71.5 °F 70.3 °F 29.88 in Calm   1.2 mph 96 % 0.00 in
02:02 71.4 °F 70.2 °F 29.88 in Calm   1.2 mph 96 % 0.00 in
02:07 71.5 °F 70.3 °F 29.88 in Calm     96 % 0.00 in
02:12 71.5 °F 70.3 °F 29.88 in SSE 0.3 mph 1.2 mph 96 % 0.00 in
02:17 71.5 °F 70.3 °F 29.88 in SSE 2.1 mph 3.5 mph 96 % 0.00 in
02:22 71.7 °F 70.5 °F 29.88 in SSE 1.0 mph 2.3 mph 96 % 0.00 in
02:27 71.9 °F 70.7 °F 29.88 in SSE 0.6 mph 2.3 mph 96 % 0.00 in
02:32 72.0 °F 70.8 °F 29.88 in Calm     96 % 0.00 in
02:37 72.1 °F 70.9 °F 29.88 in Calm   1.2 mph 96 % 0.00 in
02:42 72.1 °F 70.9 °F 29.87 in Calm     96 % 0.00 in
02:48 72.2 °F 71.0 °F 29.87 in SSE 2.0 mph 3.5 mph 96 % 0.00 in
02:53 72.1 °F 70.9 °F 29.87 in SSE 1.6 mph 3.5 mph 96 % 0.00 in
03:03 72.1 °F 70.9 °F 29.86 in SSE 1.6 mph 3.5 mph 96 % 0.00 in
03:08 72.1 °F 70.9 °F 29.87 in SSE 1.4 mph 3.5 mph 96 % 0.00 in
03:13 72.2 °F 71.0 °F 29.86 in SSE 1.3 mph 2.3 mph 96 % 0.00 in
03:18 72.2 °F 71.0 °F 29.86 in SSE 0.3 mph 2.3 mph 96 % 0.00 in
03:23 72.2 °F 71.0 °F 29.86 in SSE 0.8 mph 2.3 mph 96 % 0.00 in
03:28 72.2 °F 71.0 °F 29.86 in SSE 0.3 mph 1.2 mph 96 % 0.00 in
03:33 72.2 °F 71.0 °F 29.87 in SSE 1.6 mph 2.3 mph 96 % 0.00 in
03:38 72.2 °F 71.0 °F 29.86 in SSE 0.2 mph 2.3 mph 96 % 0.00 in
03:44 72.2 °F 71.0 °F 29.86 in SSE 0.5 mph 3.5 mph 96 % 0.00 in
03:49 72.2 °F 71.0 °F 29.86 in SSE 1.1 mph 3.5 mph 96 % 0.00 in
03:54 72.3 °F 71.1 °F 29.86 in Calm   3.5 mph 96 % 0.00 in
03:59 72.3 °F 71.1 °F 29.86 in SSE 1.2 mph 2.3 mph 96 % 0.00 in
04:04 72.4 °F 71.2 °F 29.86 in SSE 2.3 mph 3.5 mph 96 % 0.00 in
04:09 72.4 °F 71.2 °F 29.86 in SE 0.9 mph 2.3 mph 96 % 0.00 in
04:14 72.4 °F 71.2 °F 29.86 in SSE 0.1 mph 3.5 mph 96 % 0.00 in
04:19 72.4 °F 71.2 °F 29.86 in SSE 0.1 mph 1.2 mph 96 % 0.00 in
04:29 72.4 °F 71.2 °F 29.86 in SSE 1.0 mph 2.3 mph 96 % 0.00 in
04:34 72.4 °F 71.2 °F 29.86 in SSE 0.6 mph 1.2 mph 96 % 0.00 in
04:40 72.4 °F 71.2 °F 29.86 in SSE 0.7 mph 2.3 mph 96 % 0.00 in
04:45 72.3 °F 71.1 °F 29.85 in SSE 0.3 mph 2.3 mph 96 % 0.00 in
04:50 72.3 °F 71.1 °F 29.85 in SE 0.5 mph 2.3 mph 96 % 0.00 in
04:55 72.3 °F 71.1 °F 29.85 in SE 0.6 mph 2.3 mph 96 % 0.00 in
05:00 72.3 °F 71.1 °F 29.85 in SE 2.3 mph 4.0 mph 96 % 0.00 in
05:05 72.3 °F 71.1 °F 29.85 in SE 2.6 mph 5.0 mph 96 % 0.00 in
05:10 72.3 °F 71.1 °F 29.85 in SSE 1.5 mph 3.5 mph 96 % 0.00 in
05:15 72.3 °F 71.1 °F 29.85 in SSE 0.3 mph 1.2 mph 96 % 0.00 in
05:20 72.3 °F 71.1 °F 29.85 in SSE 1.0 mph 2.3 mph 96 % 0.00 in
05:25 72.4 °F 71.2 °F 29.85 in SSE 0.5 mph 2.0 mph 96 % 0.00 in
05:30 72.3 °F 71.1 °F 29.85 in SSE 0.3 mph 2.3 mph 96 % 0.00 in
05:36 72.3 °F 71.1 °F 29.85 in Calm   2.0 mph 96 % 0.00 in
05:41 72.3 °F 71.1 °F 29.86 in Calm   2.0 mph 96 % 0.00 in
05:46 72.2 °F 71.0 °F 29.86 in Calm   1.0 mph 96 % 0.00 in
05:51 72.2 °F 71.0 °F 29.85 in Calm   2.0 mph 96 % 0.00 in
05:55 72.2 °F 71.0 °F 29.85 in SSE 0.6 mph 1.2 mph 96 % 0.00 in
06:01 72.2 °F 71.0 °F 29.86 in SSE 0.8 mph 2.3 mph 96 % 0.00 in
06:06 72.2 °F 71.0 °F 29.85 in SSE 1.2 mph 3.5 mph 96 % 0.00 in
06:11 72.2 °F 71.0 °F 29.86 in SSE 0.6 mph 2.3 mph 96 % 0.00 in
06:16 72.2 °F 71.0 °F 29.86 in SSE 0.3 mph 1.2 mph 96 % 0.00 in
06:21 72.2 °F 71.0 °F 29.85 in SSE 0.3 mph 1.2 mph 96 % 0.00 in
06:26 72.2 °F 71.0 °F 29.85 in SE 0.6 mph 3.5 mph 96 % 0.00 in
06:31 72.3 °F 71.4 °F 29.85 in SE 0.4 mph 1.2 mph 97 % 0.00 in
06:36 72.3 °F 71.4 °F 29.85 in SE 1.4 mph 3.5 mph 97 % 0.00 in
06:41 72.4 °F 71.5 °F 29.85 in SE 0.3 mph 2.3 mph 97 % 0.00 in
06:46 72.5 °F 71.6 °F 29.85 in SE 0.3 mph 1.0 mph 97 % 0.00 in
06:51 72.6 °F 71.7 °F 29.85 in SE 0.3 mph 1.2 mph 97 % 0.00 in
06:57 72.8 °F 71.9 °F 29.86 in Calm   1.2 mph 97 % 0.00 in
07:02 73.0 °F 72.1 °F 29.85 in SE 0.1 mph 1.2 mph 97 % 0.00 in
07:07 73.2 °F 72.3 °F 29.86 in SE 0.2 mph 1.2 mph 97 % 0.00 in
07:12 73.5 °F 72.6 °F 29.85 in Calm     97 % 0.00 in
07:17 73.8 °F 73.2 °F 29.86 in SE 0.8 mph 3.5 mph 98 % 0.00 in
07:22 74.0 °F 73.1 °F 29.86 in SE 0.1 mph 1.2 mph 97 % 0.00 in
07:27 74.2 °F 73.3 °F 29.86 in SE 0.1 mph 1.2 mph 97 % 0.00 in
07:32 74.3 °F 73.4 °F 29.86 in Calm   1.2 mph 97 % 0.00 in
07:37 74.4 °F 73.5 °F 29.86 in SE 0.2 mph 1.2 mph 97 % 0.00 in
07:42 74.5 °F 73.6 °F 29.86 in SE 0.4 mph 1.2 mph 97 % 0.00 in
07:48 74.6 °F 73.7 °F 29.86 in SE 0.3 mph 1.2 mph 97 % 0.00 in
07:53 74.8 °F 73.9 °F 29.86 in SE 0.4 mph 3.5 mph 97 % 0.00 in
07:58 75.0 °F 74.1 °F 29.87 in SE 1.0 mph 4.6 mph 97 % 0.00 in
08:03 75.2 °F 74.3 °F 29.86 in SE 0.4 mph 3.0 mph 97 % 0.00 in
08:08 75.5 °F 74.6 °F 29.86 in SE 1.5 mph 4.0 mph 97 % 0.00 in
08:13 75.8 °F 74.9 °F 29.86 in ESE 2.8 mph 4.6 mph 97 % 0.00 in
08:18 76.0 °F 75.1 °F 29.86 in ESE 1.5 mph 3.5 mph 97 % 0.00 in
08:23 76.2 °F 75.0 °F 29.86 in Calm   3.5 mph 96 % 0.00 in
08:28 76.4 °F 74.9 °F 29.86 in SSE 3.0 mph 5.8 mph 95 % 0.00 in
08:33 76.6 °F 75.1 °F 29.86 in SE 0.2 mph 1.2 mph 95 % 0.00 in
08:39 76.8 °F 75.3 °F 29.86 in SE 0.1 mph 1.2 mph 95 % 0.00 in
08:44 76.9 °F 75.0 °F 29.86 in SE 0.2 mph 4.6 mph 94 % 0.00 in
08:49 77.1 °F 75.2 °F 29.86 in SE 4.7 mph 9.2 mph 94 % 0.00 in
08:54 77.3 °F 75.1 °F 29.86 in SE 1.5 mph 3.5 mph 93 % 0.00 in
08:59 77.4 °F 75.2 °F 29.86 in SSE 0.3 mph 3.5 mph 93 % 0.00 in
09:04 77.5 °F 75.3 °F 29.86 in SE 4.3 mph 6.9 mph 93 % 0.00 in
09:09 77.6 °F 75.1 °F 29.86 in SE 0.8 mph 2.3 mph 92 % 0.00 in
09:14 77.8 °F 74.6 °F 29.86 in SE 4.3 mph 6.9 mph 90 % 0.00 in
09:19 78.0 °F 74.8 °F 29.86 in SSE 4.5 mph 10.4 mph 90 % 0.00 in
09:24 78.3 °F 74.8 °F 29.86 in ESE 4.2 mph 5.0 mph 89 % 0.00 in
09:30 78.5 °F 75.0 °F 29.86 in SSE 1.8 mph 4.6 mph 89 % 0.00 in
09:35 78.5 °F 75.0 °F 29.86 in SE 1.2 mph 3.5 mph 89 % 0.00 in
09:40 78.5 °F 75.0 °F 29.86 in SSE 4.6 mph 9.2 mph 89 % 0.01 in
09:45 78.3 °F 75.1 °F 29.86 in SE 2.7 mph 4.6 mph 90 % 0.01 in
09:50 78.3 °F 75.5 °F 29.86 in SE 0.9 mph 3.5 mph 91 % 0.01 in
09:55 78.3 °F 75.5 °F 29.86 in SSE 3.5 mph 5.8 mph 91 % 0.01 in
10:00 78.3 °F 75.8 °F 29.86 in SE 0.8 mph 3.5 mph 92 % 0.01 in
10:05 78.4 °F 75.9 °F 29.86 in SE 3.1 mph 8.1 mph 92 % 0.01 in
10:10 78.5 °F 75.7 °F 29.85 in SE 3.5 mph 8.0 mph 91 % 0.01 in
10:15 78.8 °F 75.9 °F 29.85 in East 2.5 mph 8.1 mph 91 % 0.01 in
10:20 79.1 °F 75.9 °F 29.85 in SE 2.0 mph 12.0 mph 90 % 0.00 in
10:25 79.3 °F 75.5 °F 29.85 in SE 7.0 mph 16.0 mph 88 % 0.00 in
10:30 79.7 °F 75.8 °F 29.85 in South 4.6 mph 8.1 mph 88 % 0.01 in
10:35 80.0 °F 75.4 °F 29.85 in SE 3.0 mph 9.0 mph 86 % 0.00 in
10:40 80.2 °F 75.7 °F 29.85 in SE 1.0 mph 4.0 mph 86 % 0.00 in
10:45 80.3 °F 75.0 °F 29.85 in SE 6.9 mph 15.0 mph 84 % 0.00 in
10:51 80.4 °F 75.2 °F 29.85 in SSE 5.0 mph 9.0 mph 84 % 0.00 in
10:55 80.7 °F 75.4 °F 29.85 in SSE 3.0 mph 8.0 mph 84 % 0.00 in
11:00 81.2 °F 75.5 °F 29.85 in South 6.8 mph 6.9 mph 83 % 0.00 in
11:05 81.9 °F 75.9 °F 29.84 in SE 5.0 mph 16.0 mph 82 % 0.00 in
11:10 82.7 °F 76.3 °F 29.84 in SE 3.0 mph 14.0 mph 81 % 0.00 in
11:15 83.3 °F 75.7 °F 29.84 in SE 4.7 mph 8.1 mph 78 % 0.00 in
11:20 83.9 °F 76.3 °F 29.83 in SE 1.0 mph 7.0 mph 78 % 0.00 in
11:25 84.0 °F 75.3 °F 29.84 in SSE 5.0 mph 12.0 mph 75 % 0.00 in
11:30 84.3 °F 75.5 °F 29.83 in SSE 5.9 mph 11.0 mph 75 % 0.00 in
11:35 84.3 °F 75.5 °F 29.83 in SE 5.0 mph 16.0 mph 75 % 0.00 in
11:40 84.8 °F 75.1 °F 29.83 in SE 3.0 mph 14.0 mph 73 % 0.00 in
11:45 84.7 °F 75.5 °F 29.83 in SSE 4.5 mph 10.4 mph 74 % 0.00 in
11:51 84.5 °F 74.9 °F 29.83 in SE 5.0 mph 12.0 mph 73 % 0.00 in
11:56 84.8 °F 75.1 °F 29.83 in SE 5.0 mph 14.0 mph 73 % 0.00 in
12:01 85.1 °F 75.1 °F 29.83 in South 3.5 mph 11.5 mph 72 % 0.00 in
12:06 85.4 °F 74.1 °F 29.83 in SW 8.3 mph 16.1 mph 69 % 0.00 in
12:11 85.3 °F 74.4 °F 29.83 in SSE 5.9 mph 15.0 mph 70 % 0.00 in
12:16 84.9 °F 74.0 °F 29.83 in SSW 3.7 mph 11.5 mph 70 % 0.01 in
12:21 85.0 °F 74.5 °F 29.83 in SSW 2.8 mph 11.5 mph 71 % 0.01 in
12:26 84.9 °F 73.6 °F 29.83 in SSW 2.0 mph 6.0 mph 69 % 0.01 in
12:31 84.8 °F 73.5 °F 29.82 in South 5.1 mph 11.5 mph 69 % 0.01 in
12:36 85.1 °F 73.3 °F 29.82 in SSE 2.3 mph 5.8 mph 68 % 0.01 in
12:41 85.2 °F 74.7 °F 29.82 in SSE 4.5 mph 8.1 mph 71 % 0.01 in
12:47 85.4 °F 74.9 °F 29.82 in SE 4.0 mph 12.7 mph 71 % 0.01 in
12:57 85.5 °F 73.7 °F 29.82 in SSE 6.1 mph 10.4 mph 68 % 0.01 in
13:02 85.3 °F 74.4 °F 29.82 in ESE 4.2 mph 10.4 mph 70 % 0.01 in
13:07 85.4 °F 73.6 °F 29.82 in South 3.4 mph 6.9 mph 68 % 0.01 in
13:12 85.4 °F 74.1 °F 29.81 in SE 3.4 mph 9.2 mph 69 % 0.01 in
13:17 85.1 °F 73.8 °F 29.81 in ESE 7.7 mph 12.7 mph 69 % 0.00 in
13:27 86.1 °F 74.7 °F 29.81 in ESE 3.4 mph 5.0 mph 69 % 0.00 in
13:32 86.5 °F 74.7 °F 29.80 in SSE 4.1 mph 6.9 mph 68 % 0.00 in
13:38 86.7 °F 74.4 °F 29.80 in SE 5.4 mph 11.5 mph 67 % 0.00 in
13:43 86.8 °F 75.4 °F 29.80 in SSE 1.9 mph 12.0 mph 69 % 0.00 in
13:48 86.7 °F 76.2 °F 29.79 in SE 0.5 mph 2.3 mph 71 % 0.00 in
13:53 86.6 °F 74.3 °F 29.79 in SE 3.0 mph 16.1 mph 67 % 0.00 in
13:58 85.8 °F 73.6 °F 29.80 in SE 2.9 mph 8.1 mph 67 % 0.00 in
14:03 85.2 °F 74.3 °F 29.79 in SSE 6.2 mph 11.5 mph 70 % 0.00 in
14:08 85.3 °F 74.4 °F 29.79 in SE 2.7 mph 9.0 mph 70 % 0.00 in
14:13 85.6 °F 74.3 °F 29.79 in ENE 5.2 mph 10.4 mph 69 % 0.00 in
14:18 85.7 °F 73.9 °F 29.79 in ESE 7.1 mph 11.5 mph 68 % 0.00 in
14:23 85.7 °F 73.5 °F 29.79 in South 2.8 mph 4.6 mph 67 % 0.00 in
14:28 85.5 °F 73.3 °F 29.79 in South 3.4 mph 6.9 mph 67 % 0.00 in
14:34 85.3 °F 73.5 °F 29.79 in ESE 5.0 mph 9.2 mph 68 % 0.00 in
14:39 85.2 °F 73.9 °F 29.79 in SSE 1.9 mph 8.0 mph 69 % 0.00 in
14:44 85.5 °F 74.2 °F 29.78 in ESE 2.1 mph 4.0 mph 69 % 0.00 in
14:49 85.5 °F 73.7 °F 29.78 in SSE 7.1 mph 11.5 mph 68 % 0.00 in
14:54 85.4 °F 73.6 °F 29.78 in South 1.8 mph 8.1 mph 68 % 0.00 in
14:59 85.3 °F 74.0 °F 29.78 in South 2.6 mph 4.0 mph 69 % 0.00 in
15:04 85.3 °F 74.4 °F 29.78 in SSW 3.8 mph 8.1 mph 70 % 0.00 in
15:09 85.3 °F 74.4 °F 29.78 in South 3.9 mph 8.1 mph 70 % 0.00 in
15:14 85.1 °F 75.1 °F 29.78 in SSE 2.4 mph 11.5 mph 72 % 0.00 in
15:19 84.8 °F 74.3 °F 29.78 in SE 2.1 mph 11.5 mph 71 % 0.00 in
15:25 84.8 °F 74.3 °F 29.77 in SE 1.5 mph 7.0 mph 71 % 0.00 in
15:30 84.9 °F 73.6 °F 29.76 in South 4.3 mph 11.5 mph 69 % 0.00 in
15:35 85.1 °F 73.8 °F 29.76 in South 1.2 mph 4.6 mph 69 % 0.00 in
15:40 85.4 °F 73.6 °F 29.76 in SW 4.0 mph 9.2 mph 68 % 0.00 in
15:45 85.6 °F 72.5 °F 29.77 in SSW 3.8 mph 9.2 mph 65 % 0.00 in
15:50 85.6 °F 72.9 °F 29.77 in SSW 2.5 mph 5.8 mph 66 % 0.00 in
15:55 85.7 °F 72.6 °F 29.76 in SSE 3.5 mph 5.8 mph 65 % 0.00 in
16:00 85.6 °F 72.9 °F 29.76 in WSW 3.0 mph 6.0 mph 66 % 0.00 in
16:05 85.4 °F 72.7 °F 29.76 in South 1.0 mph 4.6 mph 66 % 0.00 in
16:10 85.2 °F 72.6 °F 29.76 in SSE 0.2 mph 2.3 mph 66 % 0.00 in
16:16 84.8 °F 72.6 °F 29.76 in SSE 2.0 mph 12.0 mph 67 % 0.00 in
16:21 84.4 °F 72.6 °F 29.76 in SSE 2.0 mph 14.0 mph 68 % 0.00 in
16:26 83.8 °F 72.5 °F 29.76 in SSE 2.0 mph 12.0 mph 69 % 0.00 in
16:31 83.4 °F 72.6 °F 29.76 in SSE 1.0 mph 6.0 mph 70 % 0.00 in
16:36 83.2 °F 72.8 °F 29.76 in SSE 3.0 mph 7.0 mph 71 % 0.00 in
16:46 82.9 °F 72.9 °F 29.76 in SSE 2.0 mph 8.0 mph 72 % 0.00 in
16:51 82.8 °F 72.8 °F 29.76 in SSE 2.0 mph 8.0 mph 72 % 0.00 in
16:56 82.6 °F 72.7 °F 29.76 in South 2.0 mph 7.0 mph 72 % 0.00 in
17:01 82.5 °F 73.0 °F 29.75 in SE 4.0 mph 5.0 mph 73 % 0.00 in
17:06 82.3 °F 73.2 °F 29.75 in SSE 2.0 mph 9.0 mph 74 % 0.00 in
17:11 82.1 °F 73.0 °F 29.75 in SSE 2.0 mph 9.0 mph 74 % 0.00 in
17:16 81.9 °F 73.2 °F 29.75 in SSE 2.0 mph 8.0 mph 75 % 0.00 in
17:21 81.8 °F 73.1 °F 29.76 in SSE 5.0 mph 8.0 mph 75 % 0.00 in
17:26 81.7 °F 73.4 °F 29.76 in Calm   7.0 mph 76 % 0.00 in
17:31 81.6 °F 73.7 °F 29.76 in SE 1.4 mph 6.9 mph 77 % 0.00 in
17:36 81.6 °F 73.7 °F 29.76 in SSE 1.0 mph 6.0 mph 77 % 0.00 in
17:41 81.5 °F 74.0 °F 29.76 in SE 5.0 mph 10.0 mph 78 % 0.00 in
17:46 81.5 °F 74.3 °F 29.75 in SE 2.0 mph 7.0 mph 79 % 0.00 in
17:51 81.4 °F 73.9 °F 29.75 in SE 3.0 mph 9.0 mph 78 % 0.00 in
17:56 81.4 °F 74.3 °F 29.75 in SE 2.0 mph 10.0 mph 79 % 0.00 in
18:01 81.2 °F 74.1 °F 29.75 in SE 0.7 mph 8.1 mph 79 % 0.00 in
18:06 81.2 °F 73.7 °F 29.76 in SE 3.0 mph 9.0 mph 78 % 0.00 in
18:11 81.1 °F 73.6 °F 29.76 in SE 2.0 mph 7.0 mph 78 % 0.00 in
18:16 81.1 °F 74.0 °F 29.75 in SSE 3.5 mph 3.5 mph 79 % 0.00 in
18:21 81.0 °F 73.9 °F 29.75 in SSE 3.0 mph 10.0 mph 79 % 0.00 in
18:26 81.0 °F 73.9 °F 29.76 in SE 3.0 mph 6.0 mph 79 % 0.00 in
18:36 80.9 °F 74.1 °F 29.75 in SSE 1.0 mph 6.0 mph 80 % 0.00 in
18:41 80.8 °F 74.0 °F 29.76 in Calm   5.0 mph 80 % 0.00 in
18:46 80.8 °F 74.4 °F 29.76 in SE 1.0 mph 9.0 mph 81 % 0.00 in
18:51 80.7 °F 74.3 °F 29.76 in SSE 1.0 mph 4.0 mph 81 % 0.00 in
18:56 80.7 °F 74.7 °F 29.76 in Calm   3.0 mph 82 % 0.00 in
19:01 80.6 °F 75.0 °F 29.76 in SE 1.9 mph 4.6 mph 83 % 0.00 in
19:06 80.4 °F 74.8 °F 29.76 in SE 1.0 mph 8.0 mph 83 % 0.00 in
19:11 80.1 °F 75.1 °F 29.76 in SSE 3.0 mph 7.0 mph 85 % 0.00 in
19:16 79.7 °F 75.1 °F 29.76 in SE 2.0 mph 5.0 mph 86 % 0.00 in
19:21 79.4 °F 75.2 °F 29.76 in Calm   3.0 mph 87 % 0.00 in
19:26 79.0 °F 75.1 °F 29.76 in SSE 3.0 mph 7.0 mph 88 % 0.00 in
19:31 78.7 °F 75.2 °F 29.76 in SE 1.0 mph 3.0 mph 89 % 0.00 in
19:36 78.5 °F 75.3 °F 29.76 in SSE 1.0 mph 4.0 mph 90 % 0.00 in
19:41 78.4 °F 75.2 °F 29.75 in SE 1.0 mph 5.0 mph 90 % 0.00 in
19:46 78.3 °F 75.1 °F 29.75 in SE 1.0 mph 8.0 mph 90 % 0.01 in
19:51 78.1 °F 75.3 °F 29.75 in SE 1.0 mph 4.0 mph 91 % 0.00 in
19:56 78.0 °F 75.2 °F 29.75 in SE 1.0 mph 6.0 mph 91 % 0.00 in
20:01 77.8 °F 75.3 °F 29.75 in SE 1.7 mph 6.9 mph 92 % 0.04 in
20:06 77.7 °F 75.2 °F 29.75 in SE 2.0 mph 7.0 mph 92 % 0.00 in
20:11 77.5 °F 75.3 °F 29.74 in SE 5.0 mph 8.0 mph 93 % 0.00 in
20:16 77.5 °F 75.3 °F 29.75 in SSE 1.0 mph 5.0 mph 93 % 0.00 in
20:21 77.4 °F 75.2 °F 29.74 in SSE 3.0 mph 8.0 mph 93 % 0.00 in
20:26 77.3 °F 75.1 °F 29.74 in SE 3.0 mph 9.0 mph 93 % 0.00 in
20:31 77.1 °F 75.0 °F 29.74 in SSE 1.0 mph 6.0 mph 93 % 0.00 in
20:36 77.0 °F 74.5 °F 29.74 in SE 0.2 mph 1.2 mph 92 % 0.02 in
20:41 76.9 °F 74.4 °F 29.74 in SE 1.0 mph 5.0 mph 92 % 0.00 in
20:46 76.7 °F 74.2 °F 29.75 in SSE 2.0 mph 8.0 mph 92 % 0.00 in
20:51 76.4 °F 73.6 °F 29.74 in SE 2.3 mph 6.9 mph 91 % 0.01 in
20:56 76.3 °F 73.5 °F 29.75 in Calm   6.0 mph 91 % 0.00 in
21:01 76.1 °F 73.0 °F 29.75 in SSE 2.3 mph 3.5 mph 90 % 0.01 in
21:06 76.0 °F 73.2 °F 29.75 in SE 2.0 mph 6.9 mph 91 % 0.01 in
21:11 75.9 °F 73.1 °F 29.75 in SE 0.5 mph 3.5 mph 91 % 0.00 in
21:16 75.9 °F 73.4 °F 29.74 in SSE 3.4 mph 6.0 mph 92 % 0.00 in
21:21 76.0 °F 73.8 °F 29.74 in SSE 3.6 mph 5.8 mph 93 % 0.00 in
21:26 76.1 °F 73.9 °F 29.74 in SSE 1.2 mph 3.5 mph 93 % 0.00 in
21:31 76.1 °F 74.2 °F 29.73 in SSE 1.9 mph 6.9 mph 94 % 0.00 in
21:36 76.2 °F 74.3 °F 29.74 in SSW 0.8 mph 3.5 mph 94 % 0.00 in
21:41 76.4 °F 74.5 °F 29.74 in SE 1.7 mph 4.6 mph 94 % 0.00 in
21:46 76.4 °F 74.5 °F 29.74 in SSE 2.2 mph 5.8 mph 94 % 0.01 in
21:52 76.3 °F 74.1 °F 29.74 in SE 2.2 mph 3.0 mph 93 % 0.01 in
21:57 76.1 °F 73.9 °F 29.74 in South 0.4 mph 2.3 mph 93 % 0.01 in
22:02 76.1 °F 73.9 °F 29.74 in South 0.2 mph 1.2 mph 93 % 0.01 in
22:07 76.1 °F 73.9 °F 29.74 in SE 1.0 mph 3.5 mph 93 % 0.01 in
22:12 76.1 °F 73.9 °F 29.74 in SE 0.3 mph 3.0 mph 93 % 0.01 in
22:17 76.1 °F 73.9 °F 29.74 in SW 0.1 mph 1.2 mph 93 % 0.01 in
22:22 76.0 °F 73.8 °F 29.74 in SW 0.8 mph 3.5 mph 93 % 0.01 in
22:27 76.0 °F 73.8 °F 29.74 in SW 0.1 mph 1.2 mph 93 % 0.01 in
22:32 75.9 °F 73.7 °F 29.74 in South 0.1 mph 1.2 mph 93 % 0.01 in
22:37 75.8 °F 73.6 °F 29.74 in South 0.2 mph 2.3 mph 93 % 0.01 in
22:43 75.8 °F 73.6 °F 29.74 in South 0.5 mph 2.3 mph 93 % 0.01 in
22:48 75.7 °F 73.5 °F 29.74 in SW 0.4 mph 2.3 mph 93 % 0.00 in
22:53 75.7 °F 73.5 °F 29.74 in SW 0.3 mph 1.2 mph 93 % 0.00 in
22:58 75.7 °F 73.5 °F 29.74 in SW 0.8 mph 3.0 mph 93 % 0.00 in
23:03 75.7 °F 73.5 °F 29.74 in SSE 1.2 mph 3.5 mph 93 % 0.00 in
23:08 75.7 °F 73.8 °F 29.73 in SSE 0.4 mph 3.5 mph 94 % 0.00 in
23:13 75.7 °F 73.8 °F 29.73 in SSW 0.6 mph 3.5 mph 94 % 0.00 in
23:18 75.7 °F 73.8 °F 29.73 in SW 1.5 mph 6.9 mph 94 % 0.00 in
23:23 75.8 °F 73.9 °F 29.73 in SW 0.2 mph 2.3 mph 94 % 0.00 in
23:29 75.8 °F 73.9 °F 29.73 in SSW 1.9 mph 3.5 mph 94 % 0.00 in
23:34 75.8 °F 73.9 °F 29.74 in SW 0.8 mph 10.4 mph 94 % 0.00 in
23:39 75.9 °F 74.0 °F 29.74 in WSW 1.5 mph 3.5 mph 94 % 0.00 in
23:44 75.9 °F 74.0 °F 29.74 in WSW 0.9 mph 3.5 mph 94 % 0.00 in
23:49 75.9 °F 74.0 °F 29.74 in WSW 1.9 mph 6.9 mph 94 % 0.00 in
23:54 76.0 °F 74.1 °F 29.74 in WSW 0.4 mph 2.3 mph 94 % 0.00 in
23:59 76.0 °F 74.1 °F 29.74 in West 1.3 mph 2.3 mph 94 % 0.00 in
Crab Meadow Weather
Compliments of Weather Underground - 2.75 mb

Script developed by  Jim McMurry - jmcmurry@mwt.net Adapted for the template by  Wim van der Kuil - Leuven-Template.eu

Weather Terms: Relative Humidity - The ratio of the amount of water vapor actually present in the air to the greatest amount possible at the same temperature.